Airfield :
LOGIN :

Register | Disclaimer

   EN    FR    IT 

 










Legend :    VFR   Marginal VFR   IFR   Intensive IFR   Very Intensive IFR
Visi :
Ceiling :
>= 8 km
>= 3000ft
5 to 8 km
1000 to 3000 ft
1500m to 5 km
500 to 1000 ft
800 to 1500m
200 to 500 ft
< 800m
< 200 ft
Symbols :   Thunderstorms  Fog  Heavy snow  Heavy precipitations  Wind > 20 kt
SIGMETs :     Misc.  Thunderstorms  Icing  Turbulence  Mountain Waves  Volcanic Ashes






- Airport Elevation : 204 ft
- IATA code : AGF


LFBA - Agen

CURRENT METAR :
  • 151330Z AUTO 17004KT 140V220 9999 FEW031 BKN110 24/20 Q1013 TEMPO 30015G25KT SCT050CB

EXPIRED METARs :
  • 151300Z AUTO 19004KT 150V230 CAVOK 23/20 Q1013 TEMPO 30015G25KT SCT050CB
  • 151230Z AUTO 28004KT 250V320 9999 ///TCU 23/19 Q1012 TEMPO 30015G25KT SCT050CB
  • 151200Z AUTO 34003KT 280V080 9999 -RA FEW035/// SCT054/// BKN070/// ///TCU 22/19 Q1012 TEMPO 30015G25KT SCT050CB
  • 151130Z AUTO 30008KT 270V340 9999 -RA SCT035/// BKN045/// BKN060/// ///CB 22/19 Q1012 TEMPO 30015G25KT
  • 151100Z AUTO 29011KT 260V320 9999 -RA FEW037/// SCT046/// BKN052/// ///CB 23/18 Q1012 TEMPO 30015G25KT
  • 151030Z AUTO 29014KT 250V320 9999 FEW042/// ///TCU 27/17 Q1011 TEMPO 30015G25KT
  • 151000Z AUTO 26009KT 230V310 9999 ///CB 29/19 Q1010 TEMPO 30015G25KT
  • 150930Z AUTO VRB03KT CAVOK 29/20 Q1010 TEMPO 30015G25KT SCT045TCU

TAF TAF LFBA
Valid from the 15 at 12:00 until the 15 at 21:00 UTC


151100Z 1512/1521 28010KT 9999 SCT045TCU
PROB40
TEMPO 1512/1516 30015G25KT -SHRA SCT050CB



MET'MAP, your aeronautical weather chart ! - Copyright ORBIFLY December 2007 - Disclaimer

ORBIFLY MET'MAP TEAM :

Programming & Development : Alexandra Zaïnal
Original concept : Baudouin d'Aumeries
Technical & hardware support : Manuel Goepfert
Assistance : Marc-Olivier Méhu




SOURCES & CREDITS :

   NOAA